Weather History for Merrill, WI

Change the Weather History Date:

Monday, November 25, 2013

  Actual Average Record
Temperature  
Mean Temperature 28 °F -  
Max Temperature 33 °F 32 °F 55 °F (1914)
Min Temperature 22 °F 16 °F -4 °F (1985)
Degree Days  
Heating Degree Days 38    
Moisture  
Dew Point 20 °F    
Average Humidity 69    
Maximum Humidity 77    
Minimum Humidity 56    
Precipitation  
Precipitation 0.00 in - - ()
Sea Level Pressure  
Sea Level Pressure 29.88 in    
Wind  
Wind Speed 14 mph (WSW)    
Max Wind Speed 20 mph    
Max Gust Speed 26 mph    
Visibility 10 miles    
Events      
Averages and records for this station are not official NWS values.
T = Trace of Precipitation, MM = Missing Value Source: NWS Daily Summary

Daily Weather History Graph

Daily Weather History Graph

Search for Another Location

Airport:

Trip Planner

Search our weather history database for the weather conditions in past years. The results will help you decide how hot, cold, wet, or windy it might be!

Date:

Astronomy

Nov. 25, 2013 Rise Set
Actual Time 7:10 AM CST 4:20 PM CST
Civil Twilight 6:37 AM CST 4:53 PM CST
Nautical Twilight 6:01 AM CST 5:30 PM CST
Astronomical Twilight 5:26 AM CST 6:05 PM CST
Moon 11:57 PM CST 12:16 PM CST
Length of Visible Light 10h 16m
Length of Day
9h 10m
Waning Gibbous, 51% of the Moon is Illuminated
Nov 25
Waning Gibbous
Nov 25
Last Quarter
Dec 2
New
Dec 9
First Quarter
Dec 17
Full

Hourly Weather History & Observations

Time (CST) Temp. Windchill Dew Point Humidity Pressure Visibility Wind Dir Wind Speed Gust Speed Precip Events Conditions
12:15 AM 22.8 °F 8.9 °F 9.3 °F 56% 29.98 in 10.0 mi WSW 17.3 mph 25.3 mph N/A   Scattered Clouds
12:35 AM 23.0 °F 10.1 °F 9.5 °F 56% 29.97 in 10.0 mi SW 15.0 mph 23.0 mph N/A   Mostly Cloudy
12:55 AM 23.0 °F 10.6 °F 9.7 °F 57% 29.95 in 10.0 mi SW 13.8 mph 23.0 mph N/A   Overcast
1:15 AM 23.4 °F 10.6 °F 10.0 °F 57% 29.95 in 10.0 mi WSW 15.0 mph 20.7 mph N/A   Mostly Cloudy
1:55 AM 24.3 °F 10.8 °F 10.4 °F 56% 29.93 in 10.0 mi SW 17.3 mph 23.0 mph N/A   Overcast
2:15 AM 24.4 °F 11.9 °F 11.1 °F 57% 29.93 in 10.0 mi WSW 15.0 mph 21.9 mph N/A   Overcast
2:35 AM 24.6 °F 12.2 °F 11.1 °F 57% 29.91 in 10.0 mi SW 15.0 mph 23.0 mph N/A   Overcast
2:55 AM 24.6 °F 12.2 °F 11.3 °F 57% 29.90 in 10.0 mi SW 15.0 mph 21.9 mph N/A   Mostly Cloudy
3:15 AM 24.6 °F 10.9 °F 11.3 °F 57% 29.89 in 10.0 mi SW 18.4 mph 23.0 mph N/A   Scattered Clouds
3:35 AM 24.8 °F 12.9 °F 11.5 °F 57% 29.88 in 10.0 mi SW 13.8 mph 24.2 mph N/A   Mostly Cloudy
3:55 AM 24.8 °F 11.5 °F 12.0 °F 58% 29.88 in 10.0 mi WSW 17.3 mph 26.5 mph N/A   Overcast
4:15 AM 25.0 °F 12.6 °F 12.6 °F 59% 29.88 in 10.0 mi SW 15.0 mph 25.3 mph N/A   Overcast
4:35 AM 25.2 °F 12.0 °F 12.9 °F 60% 29.87 in 10.0 mi WSW 17.3 mph 21.9 mph N/A   Overcast
4:55 AM 25.3 °F 13.1 °F 13.1 °F 60% 29.88 in 10.0 mi WSW 15.0 mph 23.0 mph N/A   Overcast
5:15 AM 25.2 °F 12.4 °F 13.5 °F 61% 29.87 in 10.0 mi WSW 16.1 mph 25.3 mph N/A   Overcast
5:35 AM 25.2 °F 12.4 °F 13.5 °F 61% 29.86 in 10.0 mi WSW 16.1 mph 21.9 mph N/A   Overcast
5:55 AM 25.2 °F 13.9 °F 14.0 °F 63% 29.86 in 10.0 mi WSW 12.7 mph 20.7 mph N/A   Overcast
6:15 AM 25.2 °F 11.2 °F 14.9 °F 65% 29.84 in 10.0 mi WSW 19.6 mph 23.0 mph N/A   Overcast
6:35 AM 25.2 °F 12.4 °F 15.3 °F 66% 29.86 in 10.0 mi WSW 16.1 mph 20.7 mph N/A   Overcast
6:55 AM 25.3 °F 12.6 °F 15.8 °F 67% 29.86 in 10.0 mi WSW 16.1 mph 19.6 mph N/A   Overcast
7:15 AM 25.3 °F 14.7 °F 15.8 °F 67% 29.86 in 10.0 mi WSW 11.5 mph 21.9 mph N/A   Overcast
7:35 AM 25.3 °F 13.1 °F 16.5 °F 69% 29.86 in 10.0 mi WSW 15.0 mph - N/A   Overcast
7:55 AM 25.5 °F 13.8 °F 17.2 °F 71% 29.86 in 10.0 mi WSW 13.8 mph 19.6 mph N/A   Overcast
8:15 AM 25.7 °F 14.0 °F 17.6 °F 71% 29.86 in 10.0 mi WSW 13.8 mph - N/A   Overcast
8:35 AM 26.2 °F 14.7 °F 18.3 °F 72% 29.86 in 10.0 mi WSW 13.8 mph 20.7 mph N/A   Overcast
8:55 AM 26.4 °F 14.5 °F 19.0 °F 74% 29.86 in 10.0 mi WSW 15.0 mph - N/A   Overcast
9:15 AM 26.6 °F 14.7 °F 19.6 °F 75% 29.86 in 10.0 mi WSW 15.0 mph 20.7 mph N/A   Overcast
9:35 AM 27.0 °F 13.5 °F 20.3 °F 76% 29.85 in 10.0 mi WSW 19.6 mph 24.2 mph N/A   Overcast
9:55 AM 27.5 °F 15.4 °F 21.0 °F 77% 29.85 in 10.0 mi WSW 16.1 mph 21.9 mph N/A   Overcast
10:15 AM 28.0 °F 18.1 °F 21.2 °F 76% 29.86 in 10.0 mi West 11.5 mph 21.9 mph N/A   Overcast
10:35 AM 28.4 °F 17.5 °F 21.7 °F 76% 29.86 in 10.0 mi West 13.8 mph 19.6 mph N/A   Overcast
10:55 AM 28.8 °F 18.4 °F 22.1 °F 76% 29.85 in 10.0 mi West 12.7 mph 18.4 mph N/A   Overcast
11:15 AM 29.3 °F 18.6 °F 22.3 °F 75% 29.85 in 10.0 mi West 13.8 mph 17.3 mph N/A   Overcast
11:35 AM 29.8 °F 17.7 °F 23.0 °F 76% 29.84 in 10.0 mi West 18.4 mph 23.0 mph N/A   Overcast
11:55 AM 30.2 °F 19.3 °F 23.2 °F 75% 29.84 in 10.0 mi West 15.0 mph 19.6 mph N/A   Overcast
12:15 PM 30.7 °F 22.0 °F 23.9 °F 76% 29.85 in 10.0 mi West 10.4 mph 17.3 mph N/A   Overcast
12:35 PM 31.3 °F 22.1 °F 24.4 °F 76% 29.85 in 10.0 mi West 11.5 mph - N/A   Overcast
12:55 PM 32.0 °F 22.5 °F 24.6 °F 74% 29.84 in 10.0 mi West 12.7 mph - N/A   Mostly Cloudy
1:15 PM 33.3 °F 22.8 °F 24.8 °F 71% 29.84 in 10.0 mi West 16.1 mph - N/A   Scattered Clouds
1:35 PM 32.4 °F 24.0 °F 24.8 °F 74% 29.84 in 10.0 mi West 10.4 mph 19.6 mph N/A   Mostly Cloudy
1:55 PM 33.4 °F 23.5 °F 25.0 °F 71% 29.84 in 10.0 mi West 15.0 mph - N/A   Mostly Cloudy
2:15 PM 32.4 °F 22.1 °F 25.3 °F 75% 29.85 in 10.0 mi West 15.0 mph - N/A   Overcast
2:35 PM 32.5 °F 24.8 °F 25.3 °F 75% 29.85 in 10.0 mi WSW 9.2 mph - N/A   Overcast
2:55 PM 32.5 °F 25.5 °F 25.3 °F 75% 29.85 in 10.0 mi WSW 8.1 mph - N/A   Overcast
3:15 PM 32.5 °F 25.5 °F 25.5 °F 75% 29.86 in 10.0 mi WSW 8.1 mph - N/A   Overcast
3:35 PM 32.5 °F 24.2 °F 25.7 °F 76% 29.87 in 10.0 mi WSW 10.4 mph - N/A   Overcast
3:55 PM 32.9 °F 24.7 °F 25.9 °F 75% 29.87 in 10.0 mi WSW 10.4 mph - N/A   Overcast
4:15 PM 32.9 °F 25.9 °F 26.2 °F 76% 29.88 in 10.0 mi WSW 8.1 mph - N/A   Overcast
4:35 PM 32.9 °F 26.7 °F 26.4 °F 77% 29.88 in 10.0 mi WSW 6.9 mph - N/A   Overcast
4:55 PM 33.3 °F 26.4 °F 26.6 °F 77% 29.88 in 10.0 mi WSW 8.1 mph - N/A   Overcast
5:15 PM 33.1 °F 26.1 °F 26.4 °F 77% 29.89 in 10.0 mi West 8.1 mph - N/A   Overcast
5:35 PM 33.1 °F 26.9 °F 26.4 °F 77% 29.89 in 10.0 mi West 6.9 mph - N/A   Overcast
5:55 PM 32.9 °F 26.7 °F 26.1 °F 76% 29.90 in 10.0 mi West 6.9 mph - N/A   Overcast
6:15 PM 33.1 °F 25.5 °F 25.7 °F 74% 29.90 in 10.0 mi West 9.2 mph - N/A   Overcast
6:35 PM 33.1 °F 24.9 °F 25.3 °F 73% 29.91 in 10.0 mi West 10.4 mph - N/A   Overcast
6:55 PM 33.3 °F 25.7 °F 24.6 °F 71% 29.91 in 10.0 mi West 9.2 mph 16.1 mph N/A   Overcast
7:15 PM 33.3 °F 25.1 °F 23.9 °F 69% 29.91 in 10.0 mi West 10.4 mph - N/A   Overcast
7:35 PM 33.1 °F 24.9 °F 23.9 °F 69% 29.90 in 10.0 mi West 10.4 mph 16.1 mph N/A   Overcast
7:55 PM 32.9 °F 25.3 °F 23.5 °F 68% 29.90 in 10.0 mi West 9.2 mph - N/A   Overcast
8:15 PM 32.7 °F 25.7 °F 23.7 °F 69% 29.90 in 10.0 mi West 8.1 mph - N/A   Overcast
8:35 PM 32.5 °F 23.7 °F 23.4 °F 69% 29.89 in 10.0 mi West 11.5 mph - N/A   Overcast
8:55 PM 32.4 °F 23.5 °F 23.5 °F 70% 29.89 in 10.0 mi West 11.5 mph - N/A   Overcast
9:15 PM 32.5 °F 25.5 °F 23.2 °F 68% 29.89 in 10.0 mi West 8.1 mph - N/A   Overcast
9:35 PM 32.2 °F 23.8 °F 23.2 °F 69% 29.89 in 10.0 mi West 10.4 mph - N/A   Overcast
9:55 PM 32.0 °F 24.2 °F 23.0 °F 69% 29.89 in 10.0 mi West 9.2 mph - N/A   Overcast
10:15 PM 31.8 °F 25.4 °F 23.0 °F 70% 29.89 in 10.0 mi West 6.9 mph - N/A   Overcast
10:35 PM 32.0 °F 24.8 °F 23.5 °F 71% 29.89 in 10.0 mi West 8.1 mph - N/A   Overcast
10:55 PM 32.0 °F 24.2 °F 23.7 °F 71% 29.89 in 10.0 mi West 9.2 mph - N/A   Overcast
11:15 PM 32.0 °F 25.6 °F 24.1 °F 73% 29.89 in 10.0 mi West 6.9 mph - N/A   Overcast
11:35 PM 32.0 °F 24.8 °F 24.1 °F 73% 29.89 in 10.0 mi West 8.1 mph - N/A   Overcast
11:55 PM 32.0 °F 24.8 °F 23.9 °F 72% 29.89 in 10.0 mi West 8.1 mph - N/A   Overcast